Time;durP1;ratioP1;P1;durP2;ratioP2;P2;SDS_P1;SDS_P2;PMS_P1;PMS_P2;Temp;Humidity;BMP_temperature;BMP_pressure;BME280_temperature;BME280_humidity;BME280_pressure;Samples;Min_cycle;Max_cycle;Signal;HPM_P1;HPM_P2
2021/04/06 00:01:07;;;;;;;35.63;19.12;;;;;;;2.47;94.44;99544.91;1780487;80;21287;-77
2021/04/06 00:04:13;;;;;;;29.42;19.00;;;;;;;2.51;94.28;99544.97;1780519;80;21307;-77
2021/04/06 00:07:21;;;;;;;34.55;18.40;;;;;;;2.59;94.21;99539.34;1780561;80;21783;-77
2021/04/06 00:10:33;;;;;;;28.38;18.37;;;;;;;2.66;94.15;99545.38;1763912;80;21267;-77
2021/04/06 00:13:41;;;;;;;32.30;16.48;;;;;;;2.77;94.04;99551.11;1724635;83;21165;-77
2021/04/06 00:16:46;;;;;;;28.30;14.60;;;;;;;2.85;93.83;99547.70;1693870;85;21803;-77
2021/04/06 00:19:53;;;;;;;24.00;14.70;;;;;;;2.89;93.40;99546.41;1644451;86;21330;-76
2021/04/06 00:22:59;;;;;;;31.73;16.25;;;;;;;2.88;92.99;99542.02;1665052;85;21179;-77
2021/04/06 00:26:05;;;;;;;31.30;16.20;;;;;;;2.90;92.73;99534.60;1720342;82;21204;-77
2021/04/06 00:29:10;;;;;;;27.55;17.17;;;;;;;2.92;92.54;99536.67;1714490;83;21312;-77
2021/04/06 00:32:15;;;;;;;28.42;15.95;;;;;;;2.96;92.50;99537.55;1714467;83;21287;-77
2021/04/06 00:35:21;;;;;;;33.00;17.90;;;;;;;3.02;92.36;99532.94;1714473;83;21843;-76
2021/04/06 00:38:27;;;;;;;25.72;15.80;;;;;;;3.06;92.19;99522.19;1714503;83;21279;-77
2021/04/06 00:41:33;;;;;;;27.98;16.20;;;;;;;3.11;92.02;99528.50;1713299;83;21352;-77
2021/04/06 00:44:40;;;;;;;30.15;15.68;;;;;;;3.12;91.65;99531.55;1712974;84;21621;-77
2021/04/06 00:47:46;;;;;;;33.95;16.23;;;;;;;3.13;91.37;99527.84;1712948;84;21205;-77
2021/04/06 00:51:22;;;;;;;30.12;16.23;;;;;;;3.16;91.21;99526.20;1712662;84;21241;-76
2021/04/06 00:54:25;;;;;;;41.50;22.27;;;;;;;3.19;91.02;99534.00;1739098;82;21268;-76
2021/04/06 00:57:35;;;;;;;29.57;17.50;;;;;;;3.16;90.70;99526.20;1739095;82;21265;-76
2021/04/06 01:00:40;;;;;;;32.67;19.75;;;;;;;3.10;90.42;99532.69;1704193;84;21320;-77
2021/04/06 01:03:47;;;;;;;29.40;15.95;;;;;;;3.10;90.37;99538.94;1696953;84;21776;-76
2021/04/06 01:07:20;;;;;;;23.73;15.05;;;;;;;3.13;90.33;99538.66;1721400;82;21221;-77
2021/04/06 01:10:25;;;;;;;28.17;14.63;;;;;;;3.13;90.17;99540.00;1742353;81;21717;-76
2021/04/06 01:13:31;;;;;;;21.15;11.75;;;;;;;3.15;90.21;99530.39;1723122;82;21159;-76
2021/04/06 01:16:37;;;;;;;21.27;13.15;;;;;;;3.17;90.21;99529.25;1743606;82;21761;-76
2021/04/06 01:19:42;;;;;;;20.35;12.07;;;;;;;3.16;90.16;99530.27;1712392;82;21257;-77
2021/04/06 01:22:50;;;;;;;19.23;12.37;;;;;;;3.19;90.29;99530.45;1743625;82;21202;-76
2021/04/06 01:25:58;;;;;;;20.10;10.48;;;;;;;3.20;90.37;99524.91;1743637;82;21167;-77
2021/04/06 01:29:05;;;;;;;18.77;11.63;;;;;;;3.23;90.44;99523.25;1743672;82;21747;-77
2021/04/06 01:32:11;;;;;;;16.87;10.28;;;;;;;3.26;90.42;99528.37;1743661;82;21321;-77
2021/04/06 01:35:18;;;;;;;17.02;11.15;;;;;;;3.33;90.54;99525.91;1743746;82;21162;-77
2021/04/06 01:38:28;;;;;;;17.07;10.20;;;;;;;3.38;90.50;99529.52;1743680;82;21317;-76
2021/04/06 01:41:31;;;;;;;16.30;10.75;;;;;;;3.40;90.33;99524.83;1743579;82;21254;-76
2021/04/06 01:44:38;;;;;;;17.77;11.30;;;;;;;3.44;90.30;99524.88;1743674;82;21155;-76
2021/04/06 01:47:44;;;;;;;21.62;11.20;;;;;;;3.46;90.18;99527.77;1743682;82;21147;-77
2021/04/06 01:50:57;;;;;;;17.05;9.65;;;;;;;3.46;90.06;99535.03;1645014;85;21800;-77
2021/04/06 01:54:03;;;;;;;17.05;9.23;;;;;;;3.49;90.11;99527.98;1664208;85;21717;-77
2021/04/06 01:57:16;;;;;;;16.97;10.88;;;;;;;3.53;90.11;99529.39;1683764;85;21279;-77
2021/04/06 02:00:30;;;;;;;19.57;10.80;;;;;;;3.53;89.91;99532.09;1697428;84;21320;-77
2021/04/06 02:03:31;;;;;;;17.20;10.53;;;;;;;3.52;89.83;99536.63;1722586;83;21803;-76
2021/04/06 02:06:38;;;;;;;16.30;9.30;;;;;;;3.50;89.83;99539.14;1722534;83;21269;-76
2021/04/06 02:09:44;;;;;;;18.87;10.45;;;;;;;3.51;89.93;99535.44;1722898;81;21268;-77
2021/04/06 02:12:52;;;;;;;20.30;11.00;;;;;;;3.55;90.07;99544.45;1771297;81;21165;-77
2021/04/06 02:16:08;;;;;;;14.20;9.88;;;;;;;3.59;90.16;99545.86;1771240;81;21221;-77
2021/04/06 02:19:14;;;;;;;18.55;10.05;;;;;;;3.65;90.12;99543.55;1771227;81;21673;-77
2021/04/06 02:22:21;;;;;;;15.40;9.13;;;;;;;3.68;90.09;99536.50;1770865;81;21324;-77
2021/04/06 02:25:26;;;;;;;12.20;8.50;;;;;;;3.72;90.02;99541.95;1761995;81;21226;-77
2021/04/06 02:28:32;;;;;;;21.07;8.50;;;;;;;3.72;90.06;99538.75;1740783;82;21650;-77
2021/04/06 02:31:38;;;;;;;14.80;9.50;;;;;;;3.73;90.15;99530.98;1740772;82;21147;-77
2021/04/06 02:34:51;;;;;;;17.20;9.95;;;;;;;3.73;90.30;99530.98;1739344;82;21174;-77
2021/04/06 02:37:58;;;;;;;13.18;8.95;;;;;;;3.75;90.41;99533.02;1740620;82;21305;-76
2021/04/06 02:41:13;;;;;;;15.30;9.65;;;;;;;3.76;90.64;99527.95;1757819;81;21141;-77
2021/04/06 02:44:19;;;;;;;14.05;9.43;;;;;;;3.83;90.85;99529.05;1771234;81;21268;-77
2021/04/06 02:47:24;;;;;;;20.45;9.85;;;;;;;3.90;91.11;99529.79;1712208;81;21142;-77
2021/04/06 02:50:25;;;;;;;16.05;10.53;;;;;;;3.95;91.26;99533.77;1771096;81;21275;-77
2021/04/06 02:53:31;;;;;;;15.43;10.28;;;;;;;3.93;91.23;99534.41;1770375;81;21177;-77
2021/04/06 02:56:42;;;;;;;17.17;10.43;;;;;;;3.93;91.35;99535.75;1747144;81;21143;-77
2021/04/06 02:59:49;;;;;;;16.35;10.05;;;;;;;3.93;91.51;99531.70;1740758;82;21167;-77
2021/04/06 03:02:55;;;;;;;17.52;9.15;;;;;;;3.97;91.84;99532.25;1679784;85;21201;-77
2021/04/06 03:06:08;;;;;;;15.72;9.63;;;;;;;4.02;92.15;99536.70;1684523;85;21258;-76
2021/04/06 03:09:13;;;;;;;15.23;9.95;;;;;;;4.01;92.21;99539.06;1683886;85;21620;-77
2021/04/06 03:12:19;;;;;;;16.97;10.38;;;;;;;4.00;92.34;99531.45;1714574;83;21328;-77
2021/04/06 03:15:33;;;;;;;17.10;10.68;;;;;;;4.00;92.43;99530.56;1692965;83;21311;-76
2021/04/06 03:18:40;;;;;;;17.00;8.98;;;;;;;3.96;92.43;99538.67;1706256;83;21300;-76
2021/04/06 03:21:45;;;;;;;15.03;8.85;;;;;;;3.91;92.51;99539.64;1714396;84;21279;-76
2021/04/06 03:24:52;;;;;;;16.97;9.43;;;;;;;3.85;92.59;99539.72;1715055;83;21892;-77
2021/04/06 03:27:59;;;;;;;15.55;8.78;;;;;;;3.84;92.94;99544.78;1716979;83;21261;-76
2021/04/06 03:31:23;;;;;;;14.93;9.53;;;;;;;3.87;93.21;99551.76;1740636;82;21250;-77
2021/04/06 03:34:28;;;;;;;13.98;8.13;;;;;;;3.85;93.42;99554.09;1712645;83;21332;-77
2021/04/06 03:37:36;;;;;;;14.80;8.53;;;;;;;3.89;93.67;99557.86;1717261;82;21184;-77
2021/04/06 03:40:43;;;;;;;15.03;8.13;;;;;;;3.93;93.94;99563.31;1736169;81;21262;-77
2021/04/06 03:43:48;;;;;;;16.00;8.43;;;;;;;3.99;94.15;99560.00;1706499;84;21183;-77
2021/04/06 03:46:58;;;;;;;13.25;8.60;;;;;;;4.04;94.32;99557.67;1708227;83;21865;-77
2021/04/06 03:50:05;;;;;;;14.00;7.80;;;;;;;4.09;94.49;99558.06;1708629;84;21255;-77
2021/04/06 03:53:16;;;;;;;12.50;8.18;;;;;;;4.16;94.66;99561.88;1707375;83;21167;-77
2021/04/06 03:56:21;;;;;;;12.47;7.57;;;;;;;4.16;94.67;99559.17;1706552;84;21303;-77
2021/04/06 03:59:27;;;;;;;12.50;7.33;;;;;;;4.18;94.79;99560.36;1708533;83;22545;-77
2021/04/06 04:02:32;;;;;;;10.28;6.30;;;;;;;4.23;94.95;99564.81;1726013;81;21308;-77
2021/04/06 04:05:37;;;;;;;16.25;8.73;;;;;;;4.31;95.10;99567.09;1715349;83;21342;-77
2021/04/06 04:08:42;;;;;;;15.18;8.05;;;;;;;4.39;95.23;99568.20;1728014;82;21291;-77
2021/04/06 04:11:48;;;;;;;14.38;7.67;;;;;;;4.45;95.36;99568.42;1720992;83;21155;-77
2021/04/06 04:14:57;;;;;;;15.05;7.37;;;;;;;4.50;95.42;99550.34;1721204;83;21372;-77
2021/04/06 04:18:01;;;;;;;13.80;7.25;;;;;;;4.57;95.47;99551.44;1719635;82;21935;-77
2021/04/06 04:21:05;;;;;;;15.75;7.80;;;;;;;4.66;95.61;99557.28;1709724;83;21778;-77
2021/04/06 04:24:12;;;;;;;9.45;6.00;;;;;;;4.79;95.73;99556.34;1716866;83;21873;-77
2021/04/06 04:27:16;;;;;;;14.10;7.58;;;;;;;4.92;95.74;99560.51;1714858;83;21175;-77
2021/04/06 04:30:47;;;;;;;11.08;6.78;;;;;;;4.98;95.56;99560.71;1720936;83;21717;-77
2021/04/06 04:33:48;;;;;;;17.62;7.22;;;;;;;5.05;95.35;99559.59;1719674;83;21723;-77
2021/04/06 04:36:52;;;;;;;14.85;7.67;;;;;;;5.11;95.23;99560.30;1722173;83;21259;-77
2021/04/06 04:40:00;;;;;;;15.80;8.20;;;;;;;5.17;95.23;99561.01;1699623;82;21922;-77
2021/04/06 04:43:05;;;;;;;10.60;6.78;;;;;;;5.25;95.24;99558.86;1720902;83;21308;-77
2021/04/06 04:46:11;;;;;;;17.77;9.43;;;;;;;5.31;95.30;99560.41;1706516;83;21789;-77
2021/04/06 04:49:17;;;;;;;17.05;8.60;;;;;;;5.37;95.37;99565.22;1722584;83;21746;-77
2021/04/06 04:52:16;;;;;;;11.80;6.58;;;;;;;5.45;95.40;99563.55;1707547;83;21924;-77
2021/04/06 04:55:22;;;;;;;13.70;7.83;;;;;;;5.54;95.47;99568.84;1721591;83;21165;-77
2021/04/06 04:58:28;;;;;;;12.30;7.03;;;;;;;5.61;95.39;99572.63;1721084;82;22670;-77
2021/04/06 05:01:33;;;;;;;14.95;7.12;;;;;;;5.70;95.33;99574.87;1720174;82;21305;-77
2021/04/06 05:04:40;;;;;;;15.85;7.95;;;;;;;5.83;95.29;99577.11;1727626;82;22662;-76
2021/04/06 05:07:46;;;;;;;15.13;6.95;;;;;;;5.91;95.01;99575.79;1734726;82;21910;-77
2021/04/06 05:10:53;;;;;;;10.63;6.33;;;;;;;6.01;94.82;99588.74;1728531;82;21190;-76
2021/04/06 05:14:00;;;;;;;13.40;6.83;;;;;;;6.10;94.49;99581.48;1727949;82;21300;-77
2021/04/06 05:17:06;;;;;;;13.70;6.78;;;;;;;6.18;94.19;99586.94;1723386;82;21193;-76
2021/04/06 05:20:13;;;;;;;11.68;6.40;;;;;;;6.21;93.73;99586.62;1730023;82;21362;-77
2021/04/06 05:23:18;;;;;;;17.75;7.00;;;;;;;6.23;93.46;99586.45;1729095;82;21295;-77
2021/04/06 05:26:25;;;;;;;11.55;6.00;;;;;;;6.27;93.30;99591.38;1728213;82;21645;-77
2021/04/06 05:29:31;;;;;;;14.78;6.60;;;;;;;6.29;93.05;99600.20;1725142;82;21322;-78
2021/04/06 05:32:36;;;;;;;15.93;6.12;;;;;;;6.29;92.80;99599.35;1783355;79;21327;-78
2021/04/06 05:35:42;;;;;;;13.22;5.70;;;;;;;6.34;92.80;99591.04;1780887;79;21295;-77
2021/04/06 05:38:48;;;;;;;8.98;5.60;;;;;;;6.44;92.70;99595.47;1788754;79;21180;-78
2021/04/06 05:41:56;;;;;;;13.08;6.37;;;;;;;6.49;92.23;99589.03;1779638;79;21912;-77
2021/04/06 05:45:02;;;;;;;7.97;4.87;;;;;;;6.50;91.77;99588.87;1788064;79;21133;-76
2021/04/06 05:48:09;;;;;;;12.00;5.33;;;;;;;6.51;91.42;99584.30;1789984;79;21267;-77
2021/04/06 05:51:14;;;;;;;13.72;5.67;;;;;;;6.52;90.79;99580.55;1784149;79;21127;-78
2021/04/06 05:54:22;;;;;;;13.98;6.03;;;;;;;6.56;90.48;99579.20;1788303;79;21133;-78
2021/04/06 05:57:26;;;;;;;12.25;5.70;;;;;;;6.63;90.37;99569.34;1789718;79;22325;-78
2021/04/06 06:00:34;;;;;;;13.45;5.78;;;;;;;6.72;90.10;99580.55;1784388;79;21264;-78
2021/04/06 06:03:39;;;;;;;12.70;6.35;;;;;;;6.83;89.88;99584.31;1786336;79;21783;-78
2021/04/06 06:06:45;;;;;;;12.28;5.95;;;;;;;6.98;89.98;99572.75;1792106;79;21244;-78
2021/04/06 06:09:51;;;;;;;10.08;5.22;;;;;;;7.18;89.88;99576.80;1795196;78;21346;-78
2021/04/06 06:12:55;;;;;;;12.73;5.15;;;;;;;7.44;89.94;99584.76;1790615;79;21299;-78
2021/04/06 06:16:22;;;;;;;6.47;4.25;;;;;;;7.66;89.36;99582.63;1796228;79;22744;-78
2021/04/06 06:19:29;;;;;;;10.85;5.47;;;;;;;7.85;89.00;99581.37;1794804;79;21566;-79
2021/04/06 06:22:38;;;;;;;10.70;4.85;;;;;;;8.06;87.66;99579.93;1794246;79;21287;-79
2021/04/06 06:25:46;;;;;;;9.78;4.87;;;;;;;8.23;87.51;99586.12;1789187;79;21204;-80
2021/04/06 06:28:56;;;;;;;10.18;5.08;;;;;;;8.41;86.90;99590.30;1792552;79;21291;-79
2021/04/06 06:32:05;;;;;;;9.70;4.45;;;;;;;8.46;84.75;99587.04;1785996;79;21384;-79
2021/04/06 06:35:12;;;;;;;13.22;5.35;;;;;;;8.52;84.83;99597.76;1795783;79;21252;-77
2021/04/06 06:38:40;;;;;;;8.23;4.92;;;;;;;8.70;84.20;99592.83;1795557;79;21129;-78
2021/04/06 06:41:47;;;;;;;8.15;5.03;;;;;;;8.89;83.76;99599.67;1796418;79;21322;-78
2021/04/06 06:44:53;;;;;;;13.40;5.75;;;;;;;9.04;82.45;99597.02;1771983;79;22264;-79
2021/04/06 06:48:03;;;;;;;11.00;5.37;;;;;;;9.15;81.02;99600.14;1797209;79;21161;-79
2021/04/06 06:51:10;;;;;;;10.32;5.28;;;;;;;9.25;80.38;99602.61;1795063;79;21195;-79
2021/04/06 06:54:16;;;;;;;9.20;5.78;;;;;;;9.34;80.14;99611.05;1789193;79;21128;-80
2021/04/06 06:57:26;;;;;;;10.08;5.55;;;;;;;9.39;80.06;99603.67;1794755;79;21278;-78
2021/04/06 07:00:34;;;;;;;11.38;6.08;;;;;;;9.34;78.73;99605.59;1771346;79;21260;-80
2021/04/06 07:03:41;;;;;;;16.42;5.05;;;;;;;9.29;78.56;99600.37;1792036;79;21208;-77
2021/04/06 07:06:50;;;;;;;10.43;5.03;;;;;;;9.31;78.56;99596.92;1786514;79;21299;-80
2021/04/06 07:09:56;;;;;;;8.60;4.90;;;;;;;9.30;78.30;99601.53;1792576;79;21716;-79
2021/04/06 07:13:12;;;;;;;10.98;5.17;;;;;;;9.32;77.58;99594.03;1793305;79;21200;-79
2021/04/06 07:16:21;;;;;;;9.63;5.03;;;;;;;9.35;77.47;99595.00;1786901;79;21196;-78
2021/04/06 07:19:27;;;;;;;7.28;3.90;;;;;;;9.53;78.12;99603.37;1790980;79;21315;-79
2021/04/06 07:22:31;;;;;;;9.48;4.12;;;;;;;9.78;78.86;99601.20;1792876;79;21341;-79
2021/04/06 07:25:38;;;;;;;8.63;4.62;;;;;;;10.03;77.30;99607.24;1794688;79;21331;-79
2021/04/06 07:28:55;;;;;;;5.85;4.10;;;;;;;10.10;75.09;99610.89;1788551;79;21409;-79
2021/04/06 07:32:18;;;;;;;;;;;;;;;;;;;;;
2021/04/06 07:35:22;;;;;;;8.38;4.47;;;;;;;10.16;76.98;99601.92;1824230;76;22788;-79
2021/04/06 07:38:28;;;;;;;9.73;4.58;;;;;;;10.31;76.77;99607.42;1798813;78;21739;-80
2021/04/06 07:41:39;;;;;;;13.78;4.80;;;;;;;10.63;76.35;99607.45;1801615;78;21816;-80
2021/04/06 07:44:48;;;;;;;6.87;4.17;;;;;;;10.93;74.29;99604.94;1776930;78;21291;-80
2021/04/06 07:47:52;;;;;;;9.78;5.12;;;;;;;11.02;72.87;99604.30;1800113;78;21302;-81
2021/04/06 07:50:59;;;;;;;8.08;3.90;;;;;;;11.05;73.22;99600.30;1800941;78;21176;-81
2021/04/06 07:54:17;;;;;;;6.67;4.10;;;;;;;11.07;72.01;99598.23;1797249;78;21290;-80
2021/04/06 07:57:22;;;;;;;6.65;3.60;;;;;;;11.08;70.88;99599.91;1807475;78;21295;-80
2021/04/06 08:00:56;;;;;;;6.03;3.92;;;;;;;11.04;69.33;99594.51;1799392;78;21269;-80
2021/04/06 08:04:10;;;;;;;6.20;3.90;;;;;;;10.87;69.48;99603.49;1797034;78;21149;-80
2021/04/06 08:07:37;;;;;;;8.38;3.72;;;;;;;10.70;70.16;99600.18;1805294;78;21825;-80
2021/04/06 08:10:44;;;;;;;15.18;4.10;;;;;;;10.63;71.52;99599.25;1800504;78;21830;-81
2021/04/06 08:13:51;;;;;;;9.68;3.62;;;;;;;10.63;71.56;99605.59;1799768;79;21782;-80
2021/04/06 08:16:56;;;;;;;5.90;3.85;;;;;;;10.62;70.25;99605.24;1801264;78;21514;-81
2021/04/06 08:20:18;;;;;;;5.47;3.62;;;;;;;10.62;71.04;99605.77;1806430;78;21262;-81
2021/04/06 08:23:52;;;;;;;6.92;4.15;;;;;;;10.73;72.41;99606.64;1805378;78;21509;-79
2021/04/06 08:26:58;;;;;;;7.92;4.12;;;;;;;10.92;70.77;99595.05;1752707;80;21443;-78
2021/04/06 08:30:27;;;;;;;8.88;3.52;;;;;;;11.12;69.23;99587.53;1761547;80;21286;-79
2021/04/06 08:33:33;;;;;;;7.03;3.77;;;;;;;11.24;67.96;99583.20;1801450;78;21796;-81
2021/04/06 08:36:40;;;;;;;8.60;4.80;;;;;;;11.41;66.82;99591.45;1800342;78;21793;-81
2021/04/06 08:39:46;;;;;;;8.58;3.80;;;;;;;11.49;64.70;99588.57;1801893;78;21279;-79
2021/04/06 08:42:52;;;;;;;7.00;3.35;;;;;;;11.46;64.67;99586.22;1807415;78;21323;-79
2021/04/06 08:46:08;;;;;;;6.78;3.60;;;;;;;11.50;64.45;99576.56;1800982;78;21298;-79
2021/04/06 08:49:30;;;;;;;5.85;3.22;;;;;;;11.64;61.84;99579.39;1798321;78;21342;-79
2021/04/06 08:52:35;;;;;;;6.40;3.83;;;;;;;11.70;60.70;99570.36;1810837;78;21290;-79
2021/04/06 08:55:40;;;;;;;7.78;3.65;;;;;;;11.60;58.07;99578.10;1799724;78;21255;-79
2021/04/06 08:58:47;;;;;;;5.35;3.30;;;;;;;11.42;57.84;99575.86;1804248;78;21691;-79
2021/04/06 09:02:01;;;;;;;8.45;4.00;;;;;;;11.31;59.43;99570.42;1800646;79;21156;-79
2021/04/06 09:05:06;;;;;;;7.65;3.60;;;;;;;11.29;59.78;99571.12;1807512;79;21191;-79
2021/04/06 09:08:12;;;;;;;8.90;4.47;;;;;;;11.36;61.52;99563.83;1802355;79;21259;-80
2021/04/06 09:11:23;;;;;;;10.72;4.42;;;;;;;11.42;61.17;99563.02;1801323;78;21182;-80
2021/04/06 09:14:27;;;;;;;7.08;3.87;;;;;;;11.46;60.69;99551.98;1801581;77;21311;-80
2021/04/06 09:17:38;;;;;;;5.37;4.03;;;;;;;11.51;59.59;99554.97;1803433;77;21199;-80
2021/04/06 09:20:45;;;;;;;6.78;3.80;;;;;;;11.57;59.92;99557.42;1801787;79;21340;-79
2021/04/06 09:23:50;;;;;;;7.55;4.37;;;;;;;11.71;61.36;99556.98;1806844;78;21272;-78
2021/04/06 09:26:56;;;;;;;4.75;3.98;;;;;;;11.82;60.88;99548.24;1795685;79;21295;-79
2021/04/06 09:30:02;;;;;;;9.20;3.52;;;;;;;11.89;59.92;99553.22;1799247;78;21259;-78
2021/04/06 09:33:17;;;;;;;6.33;4.10;;;;;;;11.91;58.90;99545.66;1803399;78;21259;-81
2021/04/06 09:36:23;;;;;;;5.78;3.72;;;;;;;12.00;58.77;99545.80;1793796;78;21142;-78
2021/04/06 09:39:27;;;;;;;6.22;3.83;;;;;;;12.15;57.11;99534.69;1785823;79;21192;-79
2021/04/06 09:42:34;;;;;;;4.97;3.50;;;;;;;12.30;54.08;99542.74;1789252;79;21260;-78
2021/04/06 09:45:39;;;;;;;8.70;4.33;;;;;;;12.30;53.14;99534.52;1786433;79;21237;-79
2021/04/06 09:48:45;;;;;;;7.40;3.62;;;;;;;12.29;53.79;99541.06;1788256;79;21200;-78
2021/04/06 09:51:55;;;;;;;4.25;3.15;;;;;;;12.42;54.56;99534.75;1711445;82;21267;-79
2021/04/06 09:55:07;;;;;;;5.30;3.10;;;;;;;12.56;53.42;99536.47;1787142;79;21303;-79
2021/04/06 09:58:14;;;;;;;7.50;3.85;;;;;;;12.70;51.45;99545.56;1787727;79;21751;-79
2021/04/06 10:01:37;;;;;;;7.97;3.98;;;;;;;12.67;51.89;99544.10;1786607;79;21668;-79
2021/04/06 10:04:50;;;;;;;8.05;3.98;;;;;;;12.74;51.65;99532.59;1788728;79;21710;-79
2021/04/06 10:08:00;;;;;;;10.53;4.15;;;;;;;12.91;50.71;99537.69;1787304;79;21184;-79
2021/04/06 10:11:05;;;;;;;5.42;3.08;;;;;;;12.86;50.20;99538.32;1785762;79;22060;-79
2021/04/06 10:14:13;;;;;;;5.65;3.92;;;;;;;12.76;49.68;99535.15;1785315;79;21291;-78
2021/04/06 10:17:24;;;;;;;5.72;3.67;;;;;;;12.67;51.01;99531.76;1748070;79;21317;-78
2021/04/06 10:20:35;;;;;;;5.85;3.37;;;;;;;12.63;50.12;99532.38;1783448;79;21306;-79
2021/04/06 10:23:43;;;;;;;7.08;3.70;;;;;;;12.47;49.76;99531.73;1786565;79;21283;-79
2021/04/06 10:26:49;;;;;;;5.85;3.87;;;;;;;12.41;50.26;99520.72;1786031;79;21287;-78
2021/04/06 10:30:08;;;;;;;5.58;3.40;;;;;;;12.51;49.56;99514.30;1787356;79;21303;-78
2021/04/06 10:33:23;;;;;;;5.58;3.50;;;;;;;12.58;49.37;99501.45;1790414;79;21188;-78
2021/04/06 10:36:29;;;;;;;7.62;3.10;;;;;;;12.52;48.82;99509.16;1784598;79;21189;-78
2021/04/06 10:39:44;;;;;;;7.42;4.03;;;;;;;12.41;49.86;99500.15;1787623;79;21256;-78
2021/04/06 10:42:50;;;;;;;9.28;3.50;;;;;;;12.39;49.82;99496.25;1787147;79;21287;-79
2021/04/06 10:46:07;;;;;;;5.50;3.83;;;;;;;12.49;50.79;99499.97;1790258;79;21298;-77
2021/04/06 10:49:14;;;;;;;4.65;3.25;;;;;;;12.57;50.29;99492.92;1788111;79;21275;-79
2021/04/06 10:52:19;;;;;;;4.33;3.30;;;;;;;12.59;49.43;99494.07;1788114;79;21284;-78
2021/04/06 10:55:25;;;;;;;4.75;3.45;;;;;;;12.56;49.81;99494.48;1786320;79;21256;-78
2021/04/06 10:58:34;;;;;;;5.47;3.20;;;;;;;12.53;49.99;99488.90;1787059;79;21300;-77
2021/04/06 11:01:54;;;;;;;;;;;;;;;12.45;49.43;99495.41;1787344;79;21761;-80
2021/04/06 11:04:59;;;;;;;6.67;3.60;;;;;;;12.47;49.90;99483.73;1784855;79;20556;-77
2021/04/06 11:08:03;;;;;;;4.70;3.60;;;;;;;12.47;48.66;99480.98;1785778;79;21307;-79
2021/04/06 11:11:14;;;;;;;3.17;2.58;;;;;;;12.38;48.30;99471.27;1788697;79;21129;-79
2021/04/06 11:14:25;;;;;;;4.10;3.30;;;;;;;12.36;48.15;99477.47;1782926;79;21275;-78
2021/04/06 11:17:31;;;;;;;6.62;3.60;;;;;;;12.47;49.85;99470.02;1726770;82;21165;-78
2021/04/06 11:20:37;;;;;;;5.85;3.17;;;;;;;12.60;47.39;99476.55;1739265;81;21813;-79
2021/04/06 11:23:44;;;;;;;4.35;2.70;;;;;;;12.67;48.39;99477.41;1746462;81;21283;-79
2021/04/06 11:26:50;;;;;;;4.70;2.83;;;;;;;12.73;48.01;99482.05;1737361;81;21319;-78
2021/04/06 11:29:59;;;;;;;7.25;3.42;;;;;;;12.76;47.76;99472.88;1734111;81;21172;-79
2021/04/06 11:33:04;;;;;;;6.65;3.35;;;;;;;12.74;46.44;99465.37;1737423;81;21344;-79
2021/04/06 11:36:10;;;;;;;3.52;2.60;;;;;;;12.74;47.41;99471.39;1737487;81;21315;-78
2021/04/06 11:39:16;;;;;;;4.95;2.92;;;;;;;12.77;46.20;99460.00;1734918;81;21306;-78
2021/04/06 11:42:23;;;;;;;3.33;2.75;;;;;;;12.83;46.30;99455.03;1713630;82;21272;-79
2021/04/06 11:45:29;;;;;;;3.50;2.40;;;;;;;12.91;45.35;99452.08;1730299;80;21180;-78
2021/04/06 11:48:35;;;;;;;2.87;2.33;;;;;;;12.93;44.53;99455.97;1707244;82;22167;-78
2021/04/06 11:51:41;;;;;;;2.75;2.37;;;;;;;12.86;43.67;99454.61;1720861;82;21290;-78
2021/04/06 11:54:45;;;;;;;5.53;2.45;;;;;;;12.86;43.54;99449.66;1745848;80;21272;-78
2021/04/06 11:57:51;;;;;;;3.35;2.80;;;;;;;12.94;43.00;99454.94;1739810;80;21690;-78
2021/04/06 12:00:56;;;;;;;3.40;2.67;;;;;;;12.93;42.08;99447.20;1718167;82;21173;-78
2021/04/06 12:04:03;;;;;;;7.20;2.35;;;;;;;12.85;42.49;99439.21;1721809;82;21375;-78
2021/04/06 12:07:10;;;;;;;3.15;2.33;;;;;;;12.85;42.06;99435.09;1739626;82;21314;-78
2021/04/06 12:10:19;;;;;;;5.40;2.87;;;;;;;12.86;41.89;99430.45;1731715;81;21615;-78
2021/04/06 12:13:25;;;;;;;3.60;2.70;;;;;;;12.92;41.92;99422.19;1732311;81;21243;-78
2021/04/06 12:16:31;;;;;;;6.08;2.83;;;;;;;12.90;41.37;99425.70;1738875;81;21730;-78
2021/04/06 12:19:37;;;;;;;5.87;3.17;;;;;;;12.81;42.31;99420.11;1721779;82;21268;-78
2021/04/06 12:22:43;;;;;;;4.22;2.92;;;;;;;12.83;42.91;99413.02;1737361;81;21686;-78
2021/04/06 12:25:50;;;;;;;4.17;3.30;;;;;;;12.96;43.05;99412.48;1743185;81;21350;-79
2021/04/06 12:28:56;;;;;;;8.53;3.50;;;;;;;12.99;42.57;99408.48;1720645;82;21179;-79
2021/04/06 12:32:00;;;;;;;5.42;4.15;;;;;;;12.86;43.11;99408.49;1754333;80;21434;-79
2021/04/06 12:35:06;;;;;;;8.15;4.65;;;;;;;12.73;44.01;99407.44;1738473;81;22051;-79
2021/04/06 12:38:11;;;;;;;5.97;3.87;;;;;;;12.77;44.04;99405.12;1722376;82;21300;-79
2021/04/06 12:41:16;;;;;;;4.42;3.40;;;;;;;12.84;43.87;99398.23;1725111;82;21152;-79
2021/04/06 12:44:24;;;;;;;5.50;3.30;;;;;;;12.82;43.47;99390.23;1727774;81;21892;-79
2021/04/06 12:47:29;;;;;;;3.62;2.95;;;;;;;12.71;43.19;99390.89;1752878;81;21280;-79
2021/04/06 12:50:35;;;;;;;4.50;3.30;;;;;;;12.52;42.71;99370.64;1732781;81;21315;-79
2021/04/06 12:53:41;;;;;;;4.22;3.02;;;;;;;12.50;43.30;99374.95;1740269;80;21309;-79
2021/04/06 12:56:48;;;;;;;6.95;4.40;;;;;;;12.58;43.48;99371.69;1739895;81;21303;-79
2021/04/06 12:59:53;;;;;;;6.03;4.17;;;;;;;12.61;41.60;99369.88;1746908;81;21304;-80
2021/04/06 13:02:59;;;;;;;4.22;3.12;;;;;;;12.56;41.42;99371.88;1739673;81;21309;-79
2021/04/06 13:06:04;;;;;;;5.17;3.40;;;;;;;12.50;41.62;99373.58;1738356;81;21937;-79
2021/04/06 13:09:12;;;;;;;3.08;2.67;;;;;;;12.44;41.18;99375.80;1749654;81;21272;-79
2021/04/06 13:12:17;;;;;;;7.17;3.50;;;;;;;12.33;40.96;99372.83;1741980;81;21204;-79
2021/04/06 13:15:23;;;;;;;10.13;3.30;;;;;;;12.19;42.22;99370.11;1745397;81;21698;-79
2021/04/06 13:18:23;;;;;;;5.80;2.85;;;;;;;12.13;42.24;99360.48;1739995;81;21747;-79
2021/04/06 13:21:29;;;;;;;3.95;2.67;;;;;;;12.17;42.22;99354.91;1737691;81;21312;-79
2021/04/06 13:24:35;;;;;;;4.05;2.35;;;;;;;12.21;42.33;99361.66;1745326;81;21290;-80
2021/04/06 13:27:40;;;;;;;4.30;2.80;;;;;;;12.24;42.06;99356.61;1731095;81;21291;-79
2021/04/06 13:30:46;;;;;;;3.55;2.47;;;;;;;12.36;42.41;99363.66;1735923;81;21901;-79
2021/04/06 13:33:52;;;;;;;3.35;2.60;;;;;;;12.50;41.30;99351.63;1738207;81;21181;-79
2021/04/06 13:36:59;;;;;;;4.08;2.87;;;;;;;12.52;41.87;99349.54;1730618;81;21257;-79
2021/04/06 13:40:05;;;;;;;5.47;2.50;;;;;;;12.48;42.02;99336.46;1726983;81;21167;-79
2021/04/06 13:43:11;;;;;;;4.33;2.70;;;;;;;12.47;42.50;99356.19;1696872;83;21324;-79
2021/04/06 13:46:17;;;;;;;5.10;2.77;;;;;;;12.40;43.19;99347.11;1692544;83;21301;-79
2021/04/06 13:49:23;;;;;;;3.47;2.65;;;;;;;12.35;43.11;99341.41;1689722;85;21612;-79
2021/04/06 13:52:28;;;;;;;3.33;2.83;;;;;;;12.26;42.97;99327.06;1689520;84;21332;-79
2021/04/06 13:55:35;;;;;;;4.50;2.83;;;;;;;12.14;43.57;99332.02;1699747;83;21816;-79
2021/04/06 13:58:40;;;;;;;5.33;2.45;;;;;;;12.07;44.55;99325.70;1718945;83;21911;-79
2021/04/06 14:01:46;;;;;;;5.95;2.37;;;;;;;12.06;44.23;99328.97;1718981;83;21619;-79
2021/04/06 14:04:51;;;;;;;5.42;3.12;;;;;;;11.98;43.17;99322.31;1720317;83;21820;-79
2021/04/06 14:07:57;;;;;;;6.60;3.75;;;;;;;11.81;44.34;99316.88;1712535;83;21249;-80
2021/04/06 14:11:04;;;;;;;4.95;3.22;;;;;;;11.64;44.27;99313.17;1719110;83;21915;-77
2021/04/06 14:14:10;;;;;;;4.03;3.35;;;;;;;11.50;44.79;99306.81;1720082;83;21234;-77
2021/04/06 14:17:16;;;;;;;3.75;3.05;;;;;;;11.43;45.43;99310.08;1720295;83;21198;-77
2021/04/06 14:20:24;;;;;;;7.67;3.92;;;;;;;11.37;45.60;99307.30;1719064;83;21332;-77
2021/04/06 14:23:31;;;;;;;5.08;3.50;;;;;;;11.23;46.09;99305.04;1720549;83;21346;-77
2021/04/06 14:26:36;;;;;;;6.55;4.67;;;;;;;11.07;47.79;99301.30;1720380;83;21943;-77
2021/04/06 14:29:43;;;;;;;6.50;4.17;;;;;;;10.89;48.69;99305.95;1720746;83;21155;-77
2021/04/06 14:32:48;;;;;;;6.58;4.12;;;;;;;10.72;49.57;99299.95;1720451;83;21627;-77
2021/04/06 14:35:55;;;;;;;6.60;3.92;;;;;;;10.60;50.32;99305.16;1720292;83;21330;-77
2021/04/06 14:39:01;;;;;;;5.37;3.70;;;;;;;10.54;50.58;99295.53;1719967;83;21357;-77
2021/04/06 14:42:07;;;;;;;7.62;3.85;;;;;;;10.51;50.25;99285.86;1735211;81;21689;-77
2021/04/06 14:45:13;;;;;;;7.90;3.80;;;;;;;10.49;51.03;99302.97;1743087;82;21200;-77